Washington, DC (20081)

2:03 AM EDT on October 02, 2014 (GMT -0400)
Logan Circle | Change Station
CLOSE
Current Station
Personal Weather Station
Location: Washington, DC
Elevation: 108 ft
Nearby Weather Stations
Active Advisory: Coastal Flood Advisory

Elev 108 ft 38.91 °N, 77.03 °W | Updated 7 seconds ago

Clear
Clear
61.0 °F
Feels Like 61.0 °F
N
1.3
Wind Variable Wind from North
Gusts 2.5 mph

Today
High -- | Low -- °F
--% Chance of Precip.
Yesterday
High -- | Low -- °F
Precip. -- in
7:04 AM 6:49 PM
First Quarter, 55% visible
Pressure 30.09 in
Visibility 9.0 miles
Clouds Scattered Clouds 2000 ft
Dew Point 56 °F
Humidity 84%
Rainfall 0.00 in
Snow Depth Not available.
UV 0 out of 12
Pollen 2.90 out of 12
Air Quality Not available.
Flu Activity Not available.
METAR KDCA 020552Z 03004KT 9SM SCT020 18/14 A3009 RMK AO2 SLP188 T01830144 10217 20183 53006

More Conditions Fewer Conditions

Pressure 30.09 in
Visibility 9.0 miles
Clouds Scattered Clouds 2000 ft
Dew Point 56 °F
Humidity 84%
Rainfall 0.00 in
Snow Depth Not available.
UV 0 out of 12
Pollen 2.90 out of 12
Air Quality Not available.
Flu Activity Not available.
METAR KDCA 020552Z 03004KT 9SM SCT020 18/14 A3009 RMK AO2 SLP188 T01830144 10217 20183 53006

More Conditions Fewer Conditions

10-Day Weather Forecast

Almanac

Astronomy

Oct. 02, 2014 Rise Set
Actual Time 7:04 AM EDT 6:49 PM EDT
Civil Twilight 6:38 AM EDT 7:15 PM EDT
Nautical Twilight 6:07 AM EDT 7:46 PM EDT
Astronomical Twilight 5:36 AM EDT 8:17 PM EDT
Moon 2:51 PM EDT 12:22 AM EDT
Length of Visible Light 12h 37m
Length of Day
11h 44m
Tomorrow will be 2m 30s shorter.
First Quarter, 55% of the Moon is Illuminated
Today
First Quarter
Oct 8
Full
Oct 15
Last Quarter
Oct 23
New
Oct 30
First Quarter

Today's Extremes

State Highs State Lows

Community

WunderPhotos

Upload Photos

1,758,198 photos uploaded!

Nearby

Snow Depth

Station Depth Elevation
No new snow has been reported.

Earthquake Activity

City Distance Mag. Time & Date
No recent earthquake activity has been reported nearby.
Minimum magnitude displayed is 2.5.

Coastal Water Temperatures

Place Temperature
Washington, DC 71.1 °F
Baltimore, MD 73.9 °F
Solomons Island, MD 73.0 °F

Nearby Weather Stations